createdAt,value
2018-08-20T00:01:39.985Z,57.80
2018-08-20T00:04:10.348Z,58.10
2018-08-20T00:06:51.065Z,58.30
2018-08-20T00:09:21.368Z,58.50
2018-08-20T00:11:50.282Z,58.70
2018-08-20T00:14:22.020Z,59.30
2018-08-20T00:16:50.658Z,61.30
2018-08-20T00:19:20.051Z,59.00
2018-08-20T00:21:48.825Z,58.40
2018-08-20T00:24:17.432Z,58.70
2018-08-20T00:26:46.255Z,58.70
2018-08-20T00:29:15.060Z,58.20
2018-08-20T00:31:43.781Z,58.10
2018-08-20T00:34:12.470Z,58.00
2018-08-20T00:36:41.196Z,58.00
2018-08-20T00:39:11.291Z,58.40
2018-08-20T00:41:41.353Z,57.80
2018-08-20T00:44:12.608Z,58.30
2018-08-20T00:46:42.282Z,58.30
2018-08-20T00:49:11.121Z,58.20
2018-08-20T00:51:40.460Z,58.60
2018-08-20T00:54:09.227Z,59.00
2018-08-20T00:56:37.925Z,59.40
2018-08-20T00:59:06.559Z,59.80
2018-08-20T01:01:35.637Z,60.00
2018-08-20T01:04:04.490Z,59.40
2018-08-20T01:06:33.308Z,59.60
2018-08-20T01:09:02.200Z,61.90
2018-08-20T01:11:30.890Z,60.10
2018-08-20T01:13:59.593Z,60.30
2018-08-20T01:16:28.451Z,60.30
2018-08-20T01:18:57.222Z,60.10
2018-08-20T01:21:26.362Z,60.20
2018-08-20T01:23:54.981Z,60.20
2018-08-20T01:26:23.664Z,60.10
2018-08-20T01:28:52.292Z,60.00
2018-08-20T01:31:22.402Z,60.50
2018-08-20T01:33:51.159Z,61.00
2018-08-20T01:36:20.105Z,60.50
2018-08-20T01:38:48.819Z,59.50
2018-08-20T01:41:17.527Z,61.10
2018-08-20T01:43:46.305Z,62.30
2018-08-20T01:46:15.049Z,63.20
2018-08-20T01:48:43.817Z,63.70
2018-08-20T01:51:12.540Z,63.90
2018-08-20T01:53:42.790Z,63.90
2018-08-20T01:56:11.651Z,63.10
2018-08-20T01:58:40.737Z,62.80
2018-08-20T02:01:09.863Z,61.90
2018-08-20T02:03:38.991Z,63.20
2018-08-20T02:06:07.779Z,62.90
2018-08-20T02:08:36.581Z,64.00
2018-08-20T02:11:05.703Z,62.50
2018-08-20T02:13:34.464Z,62.40
2018-08-20T02:16:03.936Z,62.50
2018-08-20T02:18:32.810Z,61.50
2018-08-20T02:21:02.866Z,61.30
2018-08-20T02:23:31.706Z,61.50
2018-08-20T02:26:00.558Z,61.40
2018-08-20T02:28:29.359Z,61.70
2018-08-20T02:30:58.316Z,61.60
2018-08-20T02:33:27.382Z,61.70
2018-08-20T02:35:56.176Z,61.80
2018-08-20T02:38:25.413Z,62.10
2018-08-20T02:40:54.143Z,63.10
2018-08-20T02:43:24.374Z,64.80
2018-08-20T02:45:53.283Z,65.60
2018-08-20T02:48:21.930Z,66.90
2018-08-20T02:50:50.663Z,66.70
2018-08-20T02:53:19.371Z,64.60
2018-08-20T02:55:48.144Z,65.20
2018-08-20T02:58:16.865Z,64.70
2018-08-20T03:00:45.690Z,65.20
2018-08-20T03:03:14.387Z,64.90
2018-08-20T03:05:44.443Z,64.90
2018-08-20T03:08:14.138Z,65.30
2018-08-20T03:10:43.228Z,66.20
2018-08-20T03:13:11.920Z,67.00
2018-08-20T03:15:42.391Z,67.60
2018-08-20T03:18:11.233Z,67.60
2018-08-20T03:20:39.900Z,67.40
2018-08-20T03:23:08.698Z,67.60
2018-08-20T03:25:39.332Z,67.40
2018-08-20T03:28:08.254Z,67.30
2018-08-20T03:30:37.023Z,66.70
2018-08-20T03:33:05.896Z,67.40
2018-08-20T03:35:36.512Z,66.10
2018-08-20T03:38:05.350Z,66.60
2018-08-20T03:40:34.246Z,66.90
2018-08-20T03:43:04.627Z,66.50
2018-08-20T03:45:33.767Z,67.20
2018-08-20T03:48:02.557Z,67.40
2018-08-20T03:50:31.307Z,66.90
2018-08-20T03:53:01.639Z,67.30
2018-08-20T03:55:30.363Z,67.00
2018-08-20T03:57:58.961Z,67.30
2018-08-20T04:00:27.893Z,67.00
2018-08-20T04:02:56.558Z,66.90
2018-08-20T04:05:26.790Z,66.00
2018-08-20T04:07:55.510Z,67.20
2018-08-20T04:10:24.103Z,67.70
2018-08-20T04:12:55.330Z,66.90
2018-08-20T04:15:24.025Z,67.00
2018-08-20T04:17:53.238Z,66.80
2018-08-20T04:20:25.626Z,66.50
2018-08-20T04:22:54.273Z,66.60
2018-08-20T04:25:24.713Z,67.00
2018-08-20T04:27:53.402Z,67.60
2018-08-20T04:30:24.063Z,68.10
2018-08-20T04:32:54.942Z,67.70
2018-08-20T04:35:23.563Z,66.00
2018-08-20T04:37:55.408Z,68.50
2018-08-20T04:40:24.236Z,68.80
2018-08-20T04:42:52.895Z,69.00
2018-08-20T04:45:21.520Z,69.70
2018-08-20T04:47:51.949Z,69.80
2018-08-20T04:50:23.370Z,70.10
2018-08-20T04:52:52.063Z,71.80
2018-08-20T04:55:20.697Z,70.50
2018-08-20T04:57:51.033Z,70.60
2018-08-20T05:00:19.661Z,71.00
2018-08-20T05:02:50.837Z,70.80
2018-08-20T05:05:20.033Z,70.40
2018-08-20T05:07:48.968Z,69.90
2018-08-20T05:10:17.827Z,70.00
2018-08-20T05:12:46.534Z,72.10
2018-08-20T05:15:16.520Z,68.20
2018-08-20T05:17:45.244Z,70.00
2018-08-20T05:20:13.843Z,71.00
2018-08-20T05:22:42.530Z,69.50
2018-08-20T05:25:11.435Z,69.40
2018-08-20T05:27:40.034Z,68.50
2018-08-20T05:30:09.023Z,68.50
2018-08-20T05:32:39.661Z,69.50
2018-08-20T05:35:08.298Z,69.60
2018-08-20T05:37:38.328Z,69.70
2018-08-20T05:40:08.690Z,69.80
2018-08-20T05:42:37.398Z,69.40
2018-08-20T05:45:08.168Z,69.50
2018-08-20T05:47:36.960Z,69.00
2018-08-20T05:50:05.804Z,68.30
2018-08-20T05:52:34.526Z,68.60
2018-08-20T05:56:32.391Z,68.20
2018-08-20T05:59:01.129Z,68.30
2018-08-20T06:01:31.179Z,68.00
2018-08-20T06:04:00.126Z,67.70
2018-08-20T06:06:28.922Z,67.40
2018-08-20T06:08:59.518Z,66.90
2018-08-20T06:11:28.830Z,66.20
2018-08-20T06:13:57.774Z,65.60
2018-08-20T06:16:26.494Z,65.50
2018-08-20T06:19:01.090Z,65.00
2018-08-20T06:21:30.631Z,64.30
2018-08-20T06:24:02.135Z,64.20
2018-08-20T06:26:30.795Z,63.80
2018-08-20T06:29:02.165Z,63.90
2018-08-20T06:31:30.921Z,62.80
2018-08-20T06:34:06.932Z,61.70
2018-08-20T06:36:36.012Z,60.80
2018-08-20T06:39:07.080Z,61.20
2018-08-20T06:41:35.769Z,62.20
2018-08-20T06:44:04.606Z,61.30
2018-08-20T06:46:34.122Z,60.80
2018-08-20T06:49:02.787Z,60.60
2018-08-20T06:51:31.539Z,59.50
2018-08-20T06:54:00.161Z,59.20
2018-08-20T06:56:29.179Z,58.90
2018-08-20T06:58:58.365Z,58.90
2018-08-20T07:01:27.118Z,58.40
2018-08-20T07:03:59.934Z,57.80
2018-08-20T07:06:28.712Z,57.40
2018-08-20T07:08:58.506Z,57.40
2018-08-20T07:11:30.451Z,57.10
2018-08-20T07:13:59.777Z,56.80
2018-08-20T07:16:33.001Z,56.50
2018-08-20T07:19:06.843Z,56.50
2018-08-20T07:21:35.897Z,56.50
2018-08-20T07:24:04.621Z,56.30
2018-08-20T07:26:33.986Z,56.30
2018-08-20T07:29:14.901Z,57.00
2018-08-20T07:31:43.948Z,57.40
2018-08-20T07:34:12.749Z,57.50
2018-08-20T07:36:43.407Z,57.70
2018-08-20T07:39:15.699Z,58.10
2018-08-20T07:41:46.272Z,57.40
2018-08-20T07:44:14.957Z,57.50
2018-08-20T07:46:44.092Z,56.70
2018-08-20T07:50:42.155Z,57.70
2018-08-20T07:53:12.070Z,57.20
2018-08-20T07:55:43.928Z,57.20
2018-08-20T07:58:12.672Z,56.10
2018-08-20T08:00:47.054Z,57.60
2018-08-20T08:03:20.244Z,56.40
2018-08-20T08:05:49.080Z,56.50
2018-08-20T08:08:23.100Z,56.20
2018-08-20T08:10:51.984Z,56.10
2018-08-20T08:13:20.633Z,55.80
2018-08-20T08:15:49.357Z,55.60
2018-08-20T08:18:22.626Z,55.00
2018-08-20T08:20:53.833Z,54.60
2018-08-20T08:23:23.762Z,54.20
2018-08-20T08:27:21.979Z,53.70
2018-08-20T08:29:50.837Z,53.30
2018-08-20T08:32:19.758Z,53.30
2018-08-20T09:20:33.008Z,52.00
2018-08-20T09:23:07.634Z,52.20
2018-08-20T09:25:36.441Z,52.20
2018-08-20T09:28:07.525Z,52.00
2018-08-20T09:30:36.404Z,51.60
2018-08-20T09:33:08.105Z,51.50
2018-08-20T09:35:36.791Z,50.30
2018-08-20T09:38:05.489Z,51.10
2018-08-20T09:40:34.244Z,51.30
2018-08-20T09:43:03.064Z,51.30
2018-08-20T09:45:31.888Z,50.90
2018-08-20T09:48:00.701Z,50.10
2018-08-20T09:50:29.442Z,49.70
2018-08-20T09:53:03.646Z,50.00
2018-08-20T09:55:33.006Z,49.70
2018-08-20T10:04:17.274Z,49.40
2018-08-20T10:06:46.235Z,49.40
2018-08-20T10:09:15.012Z,48.50
2018-08-20T10:11:43.753Z,48.30
2018-08-20T10:14:12.549Z,48.00
2018-08-20T10:16:41.294Z,47.10
2018-08-20T10:19:10.028Z,46.50
2018-08-20T10:21:38.795Z,46.60
2018-08-20T10:24:09.273Z,45.80
2018-08-20T10:26:38.043Z,44.40
2018-08-20T10:29:06.840Z,42.30
2018-08-20T10:31:35.785Z,40.20
2018-08-20T10:34:04.521Z,38.80
2018-08-20T10:36:33.322Z,38.80
2018-08-20T10:39:02.326Z,37.30
2018-08-20T10:41:31.172Z,37.20
2018-08-20T10:44:00.024Z,36.80
2018-08-20T10:46:28.780Z,35.60
2018-08-20T10:48:58.326Z,35.40
2018-08-20T10:51:27.127Z,35.10
2018-08-20T10:54:02.836Z,34.00
2018-08-20T10:56:32.021Z,32.70
2018-08-20T10:59:00.730Z,32.50
2018-08-20T11:01:29.487Z,31.90
2018-08-20T11:03:59.331Z,32.10
2018-08-20T11:06:28.992Z,32.00
2018-08-20T11:08:58.495Z,32.10
2018-08-20T11:11:27.157Z,31.50
2018-08-20T11:13:55.944Z,30.90
2018-08-20T11:16:24.948Z,31.20
2018-08-20T11:18:53.883Z,30.80
2018-08-20T11:21:22.603Z,30.50
2018-08-20T11:23:51.352Z,30.00
2018-08-20T11:26:20.221Z,29.60
2018-08-20T11:28:49.587Z,29.20
2018-08-20T11:31:18.426Z,28.50
2018-08-20T11:33:47.161Z,28.40
2018-08-20T11:36:15.916Z,28.30
2018-08-20T11:38:44.652Z,28.20
2018-08-20T11:41:13.374Z,27.80
2018-08-20T11:43:42.116Z,28.10
2018-08-20T11:46:10.894Z,28.00
2018-08-20T11:48:39.591Z,27.40
2018-08-20T11:51:08.752Z,27.40
2018-08-20T11:53:37.476Z,27.50
2018-08-20T11:56:06.382Z,27.60
2018-08-20T11:58:42.387Z,27.80
2018-08-20T12:01:16.355Z,27.40
2018-08-20T12:03:50.199Z,26.70
2018-08-20T12:06:18.967Z,26.50
2018-08-20T12:08:47.635Z,27.00
2018-08-20T12:11:16.557Z,27.80
2018-08-20T12:13:45.267Z,27.40
2018-08-20T12:16:14.057Z,27.70
2018-08-20T12:18:44.271Z,26.90
2018-08-20T12:21:21.119Z,26.30
2018-08-20T12:24:03.365Z,26.60
2018-08-20T12:33:18.275Z,25.50
2018-08-20T12:35:46.993Z,25.20
2018-08-20T12:38:15.653Z,25.80
2018-08-20T12:40:46.604Z,26.40
2018-08-20T12:43:15.257Z,25.70
2018-08-20T12:45:53.587Z,24.90
2018-08-20T12:48:30.208Z,24.90
2018-08-20T12:50:59.453Z,24.80
2018-08-20T12:53:28.719Z,24.70
2018-08-20T12:55:57.423Z,24.50
2018-08-20T12:58:26.245Z,24.70
2018-08-20T13:00:55.189Z,24.70
2018-08-20T13:03:23.911Z,25.00
2018-08-20T13:05:54.518Z,25.40
2018-08-20T13:08:34.392Z,24.60
2018-08-20T13:11:17.807Z,24.60
2018-08-20T13:13:47.084Z,24.60
2018-08-20T13:16:15.997Z,24.80
2018-08-20T13:18:44.615Z,25.00
2018-08-20T13:21:13.298Z,24.80
2018-08-20T13:23:42.042Z,24.70
2018-08-20T13:26:11.360Z,24.60
2018-08-20T13:28:40.054Z,24.20
2018-08-20T13:31:08.894Z,24.60
2018-08-20T13:33:37.726Z,24.50
2018-08-20T13:36:06.600Z,23.80
2018-08-20T13:38:35.313Z,23.70
2018-08-20T13:41:04.086Z,23.20
2018-08-20T13:43:33.461Z,23.00
2018-08-20T13:46:02.295Z,23.90
2018-08-20T13:48:31.286Z,24.20
2018-08-20T13:51:00.079Z,24.10
2018-08-20T13:53:28.719Z,23.40
2018-08-20T13:55:57.793Z,23.60
2018-08-20T13:58:26.689Z,23.60
2018-08-20T14:00:55.543Z,23.90
2018-08-20T14:03:24.318Z,23.90
2018-08-20T14:05:53.160Z,23.70
2018-08-20T14:08:21.928Z,23.30
2018-08-20T14:10:50.773Z,23.30
2018-08-20T14:13:19.426Z,22.90
2018-08-20T14:15:49.032Z,22.80
2018-08-20T14:18:19.523Z,22.90
2018-08-20T14:20:57.823Z,22.90
2018-08-20T14:23:26.655Z,22.70
2018-08-20T14:25:55.383Z,22.70
2018-08-20T14:28:24.088Z,22.70
2018-08-20T14:30:52.929Z,22.50
2018-08-20T14:33:21.579Z,21.90
2018-08-20T14:35:50.342Z,21.70
2018-08-20T14:38:19.078Z,21.60
2018-08-20T14:40:47.798Z,22.10
2018-08-20T14:43:16.596Z,22.00
2018-08-20T14:45:51.498Z,21.90
2018-08-20T14:48:21.859Z,22.90
2018-08-20T14:50:50.613Z,24.20
2018-08-20T14:53:19.413Z,25.50
2018-08-20T14:55:52.431Z,26.20
2018-08-20T14:58:21.246Z,27.10
2018-08-20T15:00:50.226Z,27.80
2018-08-20T15:03:19.483Z,28.00
2018-08-20T15:05:48.411Z,27.90
2018-08-20T15:08:17.872Z,28.20
2018-08-20T15:10:46.687Z,27.90
2018-08-20T15:13:15.420Z,28.30
2018-08-20T15:15:44.598Z,28.40
2018-08-20T15:18:13.142Z,28.30
2018-08-20T15:20:43.904Z,28.40
2018-08-20T15:23:12.556Z,28.70
2018-08-20T15:25:41.315Z,28.80
2018-08-20T15:28:10.126Z,28.60
2018-08-20T15:30:39.011Z,28.90
2018-08-20T15:33:07.717Z,29.40
2018-08-20T15:35:36.498Z,29.50
2018-08-20T15:38:05.242Z,29.20
2018-08-20T15:40:34.088Z,29.30
2018-08-20T15:43:02.762Z,29.40
2018-08-20T15:45:31.933Z,29.50
2018-08-20T15:48:00.677Z,29.80
2018-08-20T15:50:29.427Z,30.50
2018-08-20T15:52:58.258Z,31.10
2018-08-20T15:55:26.909Z,31.10
2018-08-20T15:57:55.564Z,31.10
2018-08-20T16:00:26.165Z,31.10
2018-08-20T16:02:56.393Z,31.30
2018-08-20T16:05:25.222Z,31.30
2018-08-20T16:07:53.957Z,30.60
2018-08-20T16:10:23.021Z,30.30
2018-08-20T16:12:51.981Z,30.80
2018-08-20T16:15:20.677Z,30.90
2018-08-20T16:17:49.544Z,30.90
2018-08-20T16:20:18.791Z,30.60
2018-08-20T16:22:47.488Z,31.10
2018-08-20T16:25:16.345Z,32.00
2018-08-20T16:27:45.063Z,32.10
2018-08-20T16:30:14.580Z,31.90
2018-08-20T16:32:45.189Z,31.60
2018-08-20T16:35:13.978Z,31.60
2018-08-20T16:37:45.746Z,32.00
2018-08-20T16:40:14.550Z,32.20
2018-08-20T16:42:43.230Z,32.20
2018-08-20T16:45:11.935Z,32.70
2018-08-20T16:47:40.700Z,33.00
2018-08-20T16:50:11.218Z,33.00
2018-08-20T16:52:39.970Z,33.40
2018-08-20T16:55:09.611Z,33.60
2018-08-20T16:57:38.511Z,33.40
2018-08-20T17:00:09.213Z,33.70
2018-08-20T17:02:42.656Z,33.70
2018-08-20T17:05:13.073Z,33.90
2018-08-20T17:07:41.821Z,33.70
2018-08-20T17:10:15.250Z,34.40
2018-08-20T17:12:47.855Z,34.60
2018-08-20T17:15:19.752Z,34.80
2018-08-20T17:17:48.420Z,34.80
2018-08-20T17:20:17.319Z,34.90
2018-08-20T17:22:46.008Z,35.40
2018-08-20T17:25:14.804Z,35.30
2018-08-20T17:27:48.670Z,35.20
2018-08-20T17:30:17.446Z,35.40
2018-08-20T17:32:46.311Z,35.70
2018-08-20T17:35:15.072Z,35.70
2018-08-20T17:37:43.796Z,35.70
2018-08-20T17:40:12.492Z,35.70
2018-08-20T17:42:41.184Z,36.20
2018-08-20T17:45:10.176Z,36.30
2018-08-20T17:47:39.517Z,36.70
2018-08-20T17:50:20.576Z,37.10
2018-08-20T17:52:49.376Z,37.40
2018-08-20T17:55:19.321Z,37.70
2018-08-20T17:57:48.141Z,37.70
2018-08-20T18:00:24.148Z,37.80
2018-08-20T18:02:52.952Z,38.00
2018-08-20T18:05:23.120Z,37.70
2018-08-20T18:07:53.179Z,38.30
2018-08-20T18:10:22.209Z,38.10
2018-08-20T18:12:50.955Z,38.80
2018-08-20T18:15:19.906Z,39.20
2018-08-20T18:17:48.740Z,39.40
2018-08-20T18:20:17.775Z,40.00
2018-08-20T18:22:46.672Z,39.80
2018-08-20T18:25:15.728Z,40.10
2018-08-20T18:27:45.210Z,40.30
2018-08-20T18:30:17.592Z,40.80
2018-08-20T18:32:46.702Z,40.80
2018-08-20T18:35:26.235Z,41.40
2018-08-20T18:37:56.637Z,41.40
2018-08-20T18:40:25.423Z,41.70
2018-08-20T18:42:54.982Z,41.60
2018-08-20T18:45:26.852Z,42.20
2018-08-20T18:47:55.608Z,42.50
2018-08-20T18:50:24.259Z,42.00
2018-08-20T18:52:52.923Z,42.80
2018-08-20T18:55:21.711Z,42.60
2018-08-20T18:57:50.450Z,42.80
2018-08-20T19:00:19.170Z,43.10
2018-08-20T19:02:53.240Z,43.40
2018-08-20T19:05:22.488Z,43.50
2018-08-20T19:07:51.359Z,43.60
2018-08-20T19:10:21.541Z,43.70
2018-08-20T19:12:51.346Z,43.80
2018-08-20T19:15:46.292Z,44.10
2018-08-20T19:18:19.913Z,44.50
2018-08-20T19:20:48.813Z,44.90
2018-08-20T19:23:17.858Z,45.30
2018-08-20T19:25:46.744Z,45.90
2018-08-20T19:28:22.184Z,45.80
2018-08-20T19:30:51.948Z,45.60
2018-08-20T19:33:30.685Z,46.40
2018-08-20T19:35:59.582Z,46.40
2018-08-20T19:38:28.601Z,46.90
2018-08-20T19:41:03.700Z,47.30
2018-08-20T19:43:41.265Z,47.40
2018-08-20T19:46:10.061Z,47.90
2018-08-20T19:48:38.755Z,47.60
2018-08-20T19:51:09.923Z,47.90
2018-08-20T19:53:41.309Z,47.20
2018-08-20T19:56:11.713Z,47.70
2018-08-20T19:58:43.504Z,47.80
2018-08-20T20:01:14.803Z,48.00
2018-08-20T20:03:45.530Z,48.00
2018-08-20T20:06:14.892Z,48.10
2018-08-20T20:15:30.308Z,47.60
2018-08-20T20:17:58.983Z,48.30
2018-08-20T20:20:27.707Z,48.30
2018-08-20T20:22:56.455Z,48.20
2018-08-20T20:25:25.279Z,47.50
2018-08-20T20:27:54.019Z,48.40
2018-08-20T20:30:22.858Z,48.60
2018-08-20T20:32:52.503Z,48.80
2018-08-20T20:35:22.147Z,49.00
2018-08-20T20:37:52.140Z,49.40
2018-08-20T20:40:20.954Z,49.60
2018-08-20T20:42:49.738Z,50.10
2018-08-20T20:45:18.474Z,50.40
2018-08-20T20:47:47.204Z,51.30
2018-08-20T20:50:15.960Z,51.00
2018-08-20T20:52:44.636Z,50.90
2018-08-20T20:55:13.304Z,50.80
2018-08-20T20:57:41.921Z,50.40
2018-08-20T21:00:11.043Z,50.50
2018-08-20T21:02:40.395Z,50.60
2018-08-20T21:05:10.735Z,51.30
2018-08-20T21:07:39.464Z,51.10
2018-08-20T21:10:08.798Z,51.00
2018-08-20T21:12:37.646Z,51.00
2018-08-20T21:15:07.795Z,50.90
2018-08-20T21:17:37.370Z,50.90
2018-08-20T21:20:07.754Z,51.00
2018-08-20T21:22:37.327Z,51.20
2018-08-20T21:25:06.967Z,51.50
2018-08-20T21:27:35.943Z,51.60
2018-08-20T21:30:05.044Z,51.10
2018-08-20T21:32:33.805Z,52.30
2018-08-20T21:35:02.445Z,52.60
2018-08-20T21:37:32.515Z,52.60
2018-08-20T21:40:01.180Z,52.30
2018-08-20T21:42:35.157Z,53.20
2018-08-20T21:45:06.864Z,53.30
2018-08-20T21:47:36.241Z,53.30
2018-08-20T21:50:05.672Z,52.60
2018-08-20T21:52:34.423Z,52.40
2018-08-20T21:55:03.247Z,52.00
2018-08-20T21:57:31.927Z,51.80
2018-08-20T22:00:18.914Z,51.40
2018-08-20T22:02:53.057Z,52.70
2018-08-20T22:05:21.927Z,53.20
2018-08-20T22:07:50.812Z,53.60
2018-08-20T22:10:19.505Z,53.70
2018-08-20T22:12:50.634Z,55.00
2018-08-20T22:15:19.482Z,55.10
2018-08-20T22:17:48.335Z,54.20
2018-08-20T22:20:17.128Z,53.70
2018-08-20T22:22:46.130Z,53.30
2018-08-20T22:25:16.019Z,53.40
2018-08-20T22:27:50.098Z,53.80
2018-08-20T22:30:18.902Z,53.80
2018-08-20T22:32:47.730Z,54.40
2018-08-20T22:35:26.046Z,54.50
2018-08-20T22:37:55.274Z,55.30
2018-08-20T22:40:24.504Z,55.90
2018-08-20T22:42:56.194Z,56.20
2018-08-20T22:45:24.884Z,56.40
2018-08-20T22:47:53.698Z,57.60
2018-08-20T22:50:22.524Z,57.90
2018-08-20T22:52:51.952Z,58.20
2018-08-20T22:55:21.675Z,57.90
2018-08-20T22:58:01.686Z,57.60
2018-08-20T23:00:30.456Z,56.90
2018-08-20T23:02:59.203Z,56.90
2018-08-20T23:05:30.936Z,56.30
2018-08-20T23:08:05.846Z,56.50
2018-08-20T23:10:35.851Z,55.90
2018-08-20T23:13:04.655Z,56.10
2018-08-20T23:15:33.390Z,55.70
2018-08-20T23:18:02.070Z,55.90
2018-08-20T23:20:31.321Z,55.80
2018-08-20T23:23:01.398Z,55.90
2018-08-20T23:25:30.409Z,55.60
2018-08-20T23:27:59.123Z,55.70
2018-08-20T23:30:29.462Z,55.20
2018-08-20T23:32:58.291Z,55.50
2018-08-20T23:35:26.983Z,55.50
2018-08-20T23:37:55.762Z,55.50
2018-08-20T23:40:24.431Z,55.50
2018-08-20T23:42:53.116Z,55.40
2018-08-20T23:45:21.907Z,55.70
2018-08-20T23:47:50.626Z,56.10
2018-08-20T23:50:19.471Z,56.30
2018-08-20T23:52:48.261Z,56.50
2018-08-20T23:55:17.037Z,56.20
